createdAt,value
2023-02-14T00:03:23.804Z,102262.19
2023-02-14T00:08:27.420Z,102259.35
2023-02-14T00:13:30.995Z,102255.70
2023-02-14T00:18:52.526Z,102253.86
2023-02-14T00:23:55.984Z,102251.93
2023-02-14T00:28:59.665Z,102252.08
2023-02-14T00:34:03.213Z,102261.23
2023-02-14T00:39:09.027Z,102260.14
2023-02-14T00:44:14.674Z,102261.46
2023-02-14T00:49:18.514Z,102266.54
2023-02-14T00:54:22.101Z,102268.89
2023-02-14T00:59:25.875Z,102273.91
2023-02-14T01:04:29.638Z,102273.50
2023-02-14T01:09:33.404Z,102267.15
2023-02-14T01:14:38.777Z,102264.05
2023-02-14T01:19:42.111Z,102263.84
2023-02-14T01:24:45.698Z,102268.60
2023-02-14T01:29:49.215Z,102262.80
2023-02-14T01:34:52.761Z,102263.96
2023-02-14T01:39:56.290Z,102259.51
2023-02-14T01:45:03.599Z,102258.73
2023-02-14T01:50:12.040Z,102255.25
2023-02-14T01:55:19.398Z,102252.96
2023-02-14T02:00:41.743Z,102255.34
2023-02-14T02:05:50.079Z,102256.66
2023-02-14T02:10:53.601Z,102251.01
2023-02-14T02:16:13.112Z,102245.84
2023-02-14T02:22:06.878Z,102239.35
2023-02-14T02:27:40.133Z,102227.44
2023-02-14T02:33:20.280Z,102226.85
2023-02-14T02:38:38.179Z,102228.70
2023-02-14T02:43:51.746Z,102225.27
2023-02-14T02:49:05.618Z,102217.47
2023-02-14T02:54:16.646Z,102213.71
2023-02-14T02:59:24.380Z,102217.09
2023-02-14T03:04:52.822Z,102214.16
2023-02-14T03:09:58.614Z,102208.85
2023-02-14T03:15:11.975Z,102211.86
2023-02-14T03:20:22.062Z,102206.89
2023-02-14T03:25:36.998Z,102200.55
2023-02-14T03:30:52.760Z,102199.52
2023-02-14T03:36:01.913Z,102198.98
2023-02-14T03:41:12.455Z,102197.77
2023-02-14T03:46:22.042Z,102201.26
2023-02-14T03:51:27.930Z,102210.92
2023-02-14T03:56:37.068Z,102218.30
2023-02-14T04:01:47.941Z,102223.05
2023-02-14T04:06:51.848Z,102229.33
2023-02-14T04:11:55.405Z,102233.08
2023-02-14T04:17:17.516Z,102231.48
2023-02-14T04:22:20.249Z,102226.37
2023-02-14T04:27:23.629Z,102226.55
2023-02-14T04:32:27.224Z,102225.97
2023-02-14T04:37:30.925Z,102224.75
2023-02-14T04:42:34.426Z,102225.42
2023-02-14T04:47:37.920Z,102226.58
2023-02-14T04:52:41.866Z,102223.84
2023-02-14T04:57:45.312Z,102224.34
2023-02-14T05:02:48.955Z,102224.80
2023-02-14T05:07:52.656Z,102221.20
2023-02-14T05:12:56.221Z,102222.20
2023-02-14T05:18:02.313Z,102219.98
2023-02-14T05:23:12.877Z,102218.45
2023-02-14T05:28:16.874Z,102225.77
2023-02-14T05:33:20.395Z,102221.64
2023-02-14T05:38:23.929Z,102224.34
2023-02-14T05:43:27.758Z,102227.38
2023-02-14T05:48:31.309Z,102228.71
2023-02-14T05:53:35.524Z,102232.92
2023-02-14T05:58:39.121Z,102239.02
2023-02-14T06:03:42.653Z,102245.67
2023-02-14T06:08:46.377Z,102255.33
2023-02-14T06:13:49.879Z,102248.15
2023-02-14T06:18:53.356Z,102260.90
2023-02-14T06:23:56.919Z,102269.38
2023-02-14T06:29:00.404Z,102266.33
2023-02-14T06:34:03.836Z,102264.46
2023-02-14T06:39:07.266Z,102266.13
2023-02-14T06:44:10.866Z,102274.86
2023-02-14T06:49:14.529Z,102279.13
2023-02-14T06:54:18.193Z,102280.02
2023-02-14T06:59:22.078Z,102274.94
2023-02-14T07:04:25.774Z,102276.52
2023-02-14T07:09:29.802Z,102281.89
2023-02-14T07:14:33.363Z,102279.92
2023-02-14T07:19:37.228Z,102286.45
2023-02-14T07:24:41.626Z,102289.27
2023-02-14T07:29:45.140Z,102283.23
2023-02-14T07:34:48.777Z,102293.19
2023-02-14T07:39:52.251Z,102288.73
2023-02-14T07:44:55.961Z,102295.98
2023-02-14T07:49:59.537Z,102290.13
2023-02-14T07:55:02.988Z,102287.53
2023-02-14T08:00:09.365Z,102291.27
2023-02-14T08:05:16.423Z,102286.85
2023-02-14T08:10:20.323Z,102288.69
2023-02-14T08:15:44.564Z,102293.98
2023-02-14T08:20:49.386Z,102302.16
2023-02-14T08:25:53.523Z,102307.10
2023-02-14T08:31:02.489Z,102306.73
2023-02-14T08:36:06.933Z,102311.19
2023-02-14T08:41:10.605Z,102304.87
2023-02-14T08:46:16.191Z,102305.29
2023-02-14T08:51:20.256Z,102309.54
2023-02-14T08:56:26.696Z,102311.81
2023-02-14T09:01:30.362Z,102308.11
2023-02-14T09:06:37.131Z,102308.58
2023-02-14T09:11:41.104Z,102313.94
2023-02-14T09:16:44.703Z,102318.70
2023-02-14T09:21:48.480Z,102319.84
2023-02-14T09:26:52.348Z,102318.79
2023-02-14T09:31:57.754Z,102319.59
2023-02-14T09:37:01.536Z,102319.97
2023-02-14T09:42:33.761Z,102325.21
2023-02-14T09:47:43.757Z,102322.74
2023-02-14T09:52:49.759Z,102321.52
2023-02-14T09:58:12.566Z,102327.46
2023-02-14T10:03:56.565Z,102324.97
2023-02-14T10:09:10.917Z,102325.77
2023-02-14T10:14:17.865Z,102321.10
2023-02-14T10:19:28.927Z,102319.77
2023-02-14T10:24:38.340Z,102327.36
2023-02-14T10:29:42.339Z,102312.60
2023-02-14T10:34:48.353Z,102315.27
2023-02-14T10:40:05.608Z,102307.39
2023-02-14T10:45:19.325Z,102305.65
2023-02-14T10:50:31.917Z,102301.81
2023-02-14T10:55:43.780Z,102302.27
2023-02-14T11:00:55.366Z,102300.75
2023-02-14T11:05:58.935Z,102291.52
2023-02-14T11:11:11.241Z,102296.90
2023-02-14T11:16:29.327Z,102291.11
2023-02-14T11:21:38.489Z,102287.09
2023-02-14T11:26:47.110Z,102279.02
2023-02-14T11:31:51.246Z,102278.80
2023-02-14T11:36:55.125Z,102269.40
2023-02-14T11:42:01.070Z,102269.80
2023-02-14T11:47:20.774Z,102262.65
2023-02-14T11:52:28.373Z,102260.45
2023-02-14T11:57:35.370Z,102260.08
2023-02-14T12:02:41.911Z,102252.16
2023-02-14T12:07:48.189Z,102249.66
2023-02-14T12:12:58.814Z,102246.10
2023-02-14T12:18:17.821Z,102244.73
2023-02-14T12:23:26.969Z,102242.24
2023-02-14T12:28:38.839Z,102237.83
2023-02-14T12:33:42.473Z,102233.80
2023-02-14T12:38:55.564Z,102230.86
2023-02-14T12:44:05.784Z,102232.65
2023-02-14T12:49:32.102Z,102223.73
2023-02-14T12:54:49.456Z,102221.30
2023-02-14T13:00:03.201Z,102223.28
2023-02-14T13:05:16.729Z,102215.45
2023-02-14T13:10:30.290Z,102213.45
2023-02-14T13:15:42.171Z,102211.77
2023-02-14T13:20:51.078Z,102211.48
2023-02-14T13:26:01.138Z,102212.16
2023-02-14T13:31:05.672Z,102207.60
2023-02-14T13:36:12.253Z,102202.27
2023-02-14T13:41:16.986Z,102197.52
2023-02-14T13:46:42.774Z,102203.86
2023-02-14T13:51:48.626Z,102205.02
2023-02-14T13:56:52.267Z,102210.44
2023-02-14T14:01:56.385Z,102212.85
2023-02-14T14:07:18.933Z,102214.84
2023-02-14T14:12:39.549Z,102208.59
2023-02-14T14:17:45.381Z,102207.16
2023-02-14T14:22:51.054Z,102205.03
2023-02-14T14:27:54.518Z,102199.17
2023-02-14T14:33:13.529Z,102203.52
2023-02-14T14:38:17.157Z,102197.67
2023-02-14T14:43:27.233Z,102203.27
2023-02-14T14:48:33.352Z,102202.14
2023-02-14T14:53:43.983Z,102202.35
2023-02-14T14:58:47.520Z,102195.34
2023-02-14T15:03:51.399Z,102199.66
2023-02-14T15:08:56.101Z,102188.75
2023-02-14T15:14:05.353Z,102182.64
2023-02-14T15:19:33.871Z,102178.67
2023-02-14T15:24:41.590Z,102182.68
2023-02-14T15:29:55.937Z,102183.66
2023-02-14T15:35:11.061Z,102182.45
2023-02-14T15:40:24.113Z,102179.20
2023-02-14T15:45:37.001Z,102173.05
2023-02-14T15:50:48.212Z,102170.52
2023-02-14T15:56:02.598Z,102169.62
2023-02-14T16:01:13.332Z,102169.30
2023-02-14T16:06:36.765Z,102168.17
2023-02-14T16:11:41.343Z,102164.86
2023-02-14T16:17:02.379Z,102172.71
2023-02-14T16:22:08.604Z,102171.38
2023-02-14T16:27:13.205Z,102175.29
2023-02-14T16:32:22.720Z,102177.90
2023-02-14T16:37:33.790Z,102175.38
2023-02-14T16:42:40.280Z,102177.43
2023-02-14T16:47:53.770Z,102173.40
2023-02-14T16:53:00.845Z,102176.65
2023-02-14T16:58:05.925Z,102175.48
2023-02-14T17:03:13.140Z,102178.76
2023-02-14T17:08:18.275Z,102179.02
2023-02-14T17:13:33.110Z,102176.66
2023-02-14T17:18:37.943Z,102178.76
2023-02-14T17:23:42.852Z,102186.34
2023-02-14T17:28:47.257Z,102180.98
2023-02-14T17:33:56.530Z,102187.13
2023-02-14T17:39:02.865Z,102182.16
2023-02-14T17:44:09.674Z,102186.73
2023-02-14T17:49:16.184Z,102183.16
2023-02-14T17:54:30.194Z,102185.70
2023-02-14T17:59:34.892Z,102176.70
2023-02-14T18:04:58.704Z,102180.39
2023-02-14T18:10:05.958Z,102176.21
2023-02-14T18:15:11.946Z,102181.70
2023-02-14T18:20:16.616Z,102182.09
2023-02-14T18:25:20.737Z,102182.82
2023-02-14T18:30:25.282Z,102185.90
2023-02-14T18:35:30.839Z,102184.48
2023-02-14T18:40:40.976Z,102179.09
2023-02-14T18:45:44.330Z,102172.36
2023-02-14T18:50:48.093Z,102164.98
2023-02-14T18:55:51.580Z,102162.60
2023-02-14T19:00:56.070Z,102164.61
2023-02-14T19:06:00.415Z,102156.92
2023-02-14T19:11:04.783Z,102152.80
2023-02-14T19:16:13.060Z,102144.91
2023-02-14T19:21:19.271Z,102144.70
2023-02-14T19:26:25.249Z,102144.55
2023-02-14T19:31:30.361Z,102139.84
2023-02-14T19:36:36.969Z,102141.88
2023-02-14T19:41:41.815Z,102138.70
2023-02-14T19:46:49.852Z,102141.62
2023-02-14T19:51:58.203Z,102136.70
2023-02-14T19:57:02.445Z,102144.80
2023-02-14T20:02:17.358Z,102137.16
2023-02-14T20:07:22.455Z,102137.98
2023-02-14T20:12:26.550Z,102133.08
2023-02-14T20:17:34.526Z,102126.41
2023-02-14T20:22:38.602Z,102124.45
2023-02-14T20:27:46.836Z,102126.14
2023-02-14T20:32:54.344Z,102124.77
2023-02-14T20:38:02.388Z,102123.23
2023-02-14T20:43:07.696Z,102121.80
2023-02-14T20:48:14.276Z,102124.51
2023-02-14T20:53:25.631Z,102123.64
2023-02-14T20:58:31.658Z,102122.46
2023-02-14T21:03:38.268Z,102119.46
2023-02-14T21:08:46.485Z,102119.01
2023-02-14T21:13:58.599Z,102123.38
2023-02-14T21:19:04.336Z,102122.16
2023-02-14T21:24:10.222Z,102115.11
2023-02-14T21:29:14.412Z,102110.08
2023-02-14T21:34:18.109Z,102107.05
2023-02-14T21:39:26.897Z,102110.08
2023-02-14T21:44:49.843Z,102109.83
2023-02-14T21:50:12.128Z,102103.17
2023-02-14T21:55:17.753Z,102091.73
2023-02-14T22:00:22.842Z,102084.85
2023-02-14T22:05:27.307Z,102081.66
2023-02-14T22:10:32.753Z,102078.70
2023-02-14T22:15:42.895Z,102076.91
2023-02-14T22:20:48.084Z,102068.98
2023-02-14T22:25:52.512Z,102073.46
2023-02-14T22:31:00.424Z,102073.42
2023-02-14T22:36:06.900Z,102068.96
2023-02-14T22:41:13.970Z,102070.65
2023-02-14T22:46:20.112Z,102064.98
2023-02-14T22:51:26.464Z,102056.88
2023-02-14T22:56:34.070Z,102051.36
2023-02-14T23:01:38.838Z,102044.34
2023-02-14T23:06:43.221Z,102039.76
2023-02-14T23:11:48.100Z,102033.13
2023-02-14T23:17:10.684Z,102025.96
2023-02-14T23:22:20.599Z,102020.57
2023-02-14T23:27:26.800Z,102017.11
2023-02-14T23:32:30.781Z,102008.47
2023-02-14T23:37:34.914Z,102002.53
2023-02-14T23:42:40.373Z,102000.41
2023-02-14T23:47:44.857Z,101995.05
2023-02-14T23:53:05.478Z,101992.39
2023-02-14T23:58:09.283Z,101991.17
